createdAt,value
2022-12-31T00:02:11.455Z,4.78
2022-12-31T00:04:45.056Z,5.50
2022-12-31T00:07:24.032Z,6.18
2022-12-31T00:09:57.039Z,4.40
2022-12-31T00:12:28.543Z,5.30
2022-12-31T00:14:55.310Z,5.35
2022-12-31T00:17:29.001Z,5.57
2022-12-31T00:20:02.231Z,7.63
2022-12-31T00:22:36.099Z,5.75
2022-12-31T00:25:03.246Z,9.23
2022-12-31T00:27:33.623Z,7.05
2022-12-31T00:30:07.396Z,6.03
2022-12-31T00:32:34.273Z,7.30
2022-12-31T00:35:01.120Z,7.53
2022-12-31T00:37:34.034Z,6.07
2022-12-31T00:40:07.077Z,7.30
2022-12-31T00:42:33.886Z,7.03
2022-12-31T00:45:07.065Z,8.52
2022-12-31T00:47:33.940Z,7.53
2022-12-31T00:50:00.702Z,5.70
2022-12-31T00:52:35.132Z,7.57
2022-12-31T00:55:02.004Z,6.47
2022-12-31T00:57:28.814Z,7.13
2022-12-31T01:00:02.147Z,6.30
2022-12-31T01:02:34.924Z,7.10
2022-12-31T01:05:08.101Z,6.68
2022-12-31T01:07:44.244Z,6.10
2022-12-31T01:10:18.118Z,7.53
2022-12-31T01:12:50.157Z,7.80
2022-12-31T01:15:23.089Z,8.57
2022-12-31T01:18:17.203Z,7.80
2022-12-31T01:20:44.703Z,9.98
2022-12-31T01:23:22.216Z,8.85
2022-12-31T01:25:58.132Z,7.55
2022-12-31T01:28:31.113Z,8.50
2022-12-31T01:31:04.171Z,6.07
2022-12-31T01:33:31.143Z,7.18
2022-12-31T01:36:12.198Z,6.22
2022-12-31T01:38:42.624Z,7.50
2022-12-31T01:41:21.185Z,6.20
2022-12-31T01:44:00.355Z,6.30
2022-12-31T01:46:42.166Z,6.70
2022-12-31T01:49:43.194Z,6.70
2022-12-31T01:52:22.813Z,4.35
2022-12-31T01:55:01.199Z,4.63
2022-12-31T01:57:42.152Z,6.70
2022-12-31T02:00:10.049Z,6.72
2022-12-31T02:02:37.161Z,7.18
2022-12-31T02:05:23.193Z,6.50
2022-12-31T02:07:50.674Z,7.38
2022-12-31T02:10:24.258Z,6.50
2022-12-31T02:12:57.267Z,4.07
2022-12-31T02:15:46.381Z,6.13
2022-12-31T02:18:56.495Z,5.30
2022-12-31T02:22:07.244Z,4.07
2022-12-31T02:25:10.197Z,6.60
2022-12-31T02:27:51.923Z,5.90
2022-12-31T02:30:28.244Z,6.05
2022-12-31T02:33:02.933Z,6.75
2022-12-31T02:35:51.246Z,6.70
2022-12-31T02:38:31.265Z,4.53
2022-12-31T02:41:05.279Z,4.60
2022-12-31T02:43:52.255Z,8.13
2022-12-31T02:46:36.230Z,7.07
2022-12-31T02:49:56.289Z,3.47
2022-12-31T02:52:48.279Z,5.10
2022-12-31T02:55:19.634Z,4.17
2022-12-31T02:58:05.250Z,5.25
2022-12-31T03:00:55.391Z,3.95
2022-12-31T03:03:33.300Z,4.32
2022-12-31T03:06:03.276Z,6.53
2022-12-31T03:08:37.323Z,4.78
2022-12-31T03:11:30.285Z,5.13
2022-12-31T03:13:57.121Z,4.45
2022-12-31T03:16:23.976Z,3.03
2022-12-31T03:19:15.320Z,6.43
2022-12-31T03:22:00.624Z,4.90
2022-12-31T03:24:52.339Z,4.40
2022-12-31T03:27:27.145Z,4.20
2022-12-31T03:30:00.444Z,8.13
2022-12-31T03:32:34.325Z,5.97
2022-12-31T03:35:01.133Z,4.40
2022-12-31T03:37:27.920Z,4.68
2022-12-31T03:40:01.296Z,2.75
2022-12-31T03:42:32.739Z,3.20
2022-12-31T03:45:06.343Z,4.03
2022-12-31T03:47:40.346Z,5.28
2022-12-31T03:50:15.356Z,2.55
2022-12-31T03:52:42.629Z,4.60
2022-12-31T03:55:17.403Z,5.03
2022-12-31T03:57:44.407Z,5.00
2022-12-31T04:00:29.442Z,4.93
2022-12-31T04:02:56.674Z,3.65
2022-12-31T04:05:23.748Z,2.35
2022-12-31T04:07:58.431Z,2.70
2022-12-31T04:10:25.349Z,3.30
2022-12-31T04:12:58.410Z,2.63
2022-12-31T04:15:31.425Z,3.90
2022-12-31T04:18:04.392Z,2.13
2022-12-31T04:20:31.178Z,1.63
2022-12-31T04:23:05.403Z,2.95
2022-12-31T04:25:39.405Z,2.25
2022-12-31T04:28:06.163Z,2.15
2022-12-31T04:30:32.876Z,4.07
2022-12-31T04:33:06.463Z,2.50
2022-12-31T04:35:41.419Z,3.50
2022-12-31T04:38:08.664Z,2.03
2022-12-31T04:40:42.431Z,2.03
2022-12-31T04:43:09.181Z,2.58
2022-12-31T04:45:42.445Z,1.85
2022-12-31T04:48:16.458Z,2.05
2022-12-31T04:50:43.299Z,3.05
2022-12-31T04:53:16.463Z,2.60
2022-12-31T04:55:43.240Z,4.47
2022-12-31T04:58:18.483Z,2.92
2022-12-31T05:00:58.651Z,3.55
2022-12-31T05:03:33.485Z,3.03
2022-12-31T05:06:13.520Z,3.28
2022-12-31T05:08:42.491Z,2.55
2022-12-31T05:11:09.684Z,3.88
2022-12-31T05:13:43.517Z,3.20
2022-12-31T05:16:10.715Z,3.72
2022-12-31T05:18:38.178Z,3.65
2022-12-31T05:21:12.483Z,4.18
2022-12-31T05:23:39.234Z,4.93
2022-12-31T05:26:06.028Z,4.13
2022-12-31T05:28:39.532Z,4.25
2022-12-31T05:31:06.408Z,4.10
2022-12-31T05:33:36.171Z,4.20
2022-12-31T05:36:10.519Z,4.00
2022-12-31T05:38:38.164Z,3.55
2022-12-31T05:41:13.501Z,3.45
2022-12-31T05:43:47.497Z,3.17
2022-12-31T05:46:16.115Z,4.30
2022-12-31T05:48:49.584Z,3.35
2022-12-31T05:51:16.530Z,2.70
2022-12-31T05:53:50.559Z,2.90
2022-12-31T05:56:17.988Z,2.78
2022-12-31T05:58:51.579Z,3.17
2022-12-31T06:01:18.485Z,2.33
2022-12-31T06:03:54.640Z,3.35
2022-12-31T06:06:21.524Z,2.90
2022-12-31T06:08:51.903Z,2.55
2022-12-31T06:11:25.649Z,2.38
2022-12-31T06:13:52.443Z,2.28
2022-12-31T06:16:25.688Z,2.15
2022-12-31T06:18:53.175Z,2.28
2022-12-31T06:21:28.560Z,2.70
2022-12-31T06:23:55.610Z,2.17
2022-12-31T06:26:32.620Z,2.33
2022-12-31T06:28:59.413Z,2.90
2022-12-31T06:31:32.648Z,3.30
2022-12-31T06:33:59.483Z,3.38
2022-12-31T06:36:33.631Z,3.97
2022-12-31T06:39:01.497Z,4.65
2022-12-31T06:41:34.668Z,5.80
2022-12-31T06:44:01.520Z,6.97
2022-12-31T06:46:41.713Z,8.63
2022-12-31T06:49:09.068Z,7.43
2022-12-31T06:51:35.921Z,7.97
2022-12-31T06:54:09.687Z,7.15
2022-12-31T06:56:36.702Z,7.63
2022-12-31T06:59:03.819Z,7.75
2022-12-31T07:01:53.745Z,5.82
2022-12-31T07:04:35.709Z,5.18
2022-12-31T07:07:11.664Z,3.67
2022-12-31T07:10:01.409Z,2.47
2022-12-31T07:12:57.636Z,1.50
2022-12-31T07:15:52.598Z,1.08
2022-12-31T07:18:37.741Z,1.17
2022-12-31T07:21:10.747Z,0.85
2022-12-31T07:23:44.714Z,1.45
2022-12-31T07:26:26.606Z,0.85
2022-12-31T07:29:23.866Z,1.30
2022-12-31T07:32:06.090Z,1.40
2022-12-31T07:34:54.736Z,0.85
2022-12-31T07:37:36.243Z,0.88
2022-12-31T07:40:17.696Z,0.82
2022-12-31T07:43:15.611Z,0.80
2022-12-31T07:46:14.899Z,2.70
2022-12-31T07:48:41.986Z,1.98
2022-12-31T07:51:12.423Z,2.35
2022-12-31T07:53:45.754Z,0.82
2022-12-31T07:56:19.727Z,1.33
2022-12-31T07:59:24.281Z,1.33
2022-12-31T08:02:03.860Z,2.13
2022-12-31T08:04:55.780Z,2.00
2022-12-31T08:07:45.592Z,2.67
2022-12-31T08:10:33.745Z,1.48
2022-12-31T08:13:05.187Z,1.98
2022-12-31T08:15:38.786Z,4.60
2022-12-31T08:18:12.755Z,2.35
2022-12-31T08:21:34.793Z,3.13
2022-12-31T08:24:17.800Z,2.05
2022-12-31T08:27:23.823Z,2.85
2022-12-31T08:30:00.366Z,3.08
2022-12-31T08:32:48.860Z,1.30
2022-12-31T08:35:35.639Z,2.83
2022-12-31T08:38:57.780Z,2.33
2022-12-31T08:41:49.301Z,3.47
2022-12-31T08:45:16.797Z,4.30
2022-12-31T08:47:53.824Z,3.00
2022-12-31T08:50:29.876Z,2.30
2022-12-31T08:52:57.179Z,2.55
2022-12-31T08:55:30.849Z,2.70
2022-12-31T08:58:34.402Z,2.80
2022-12-31T09:01:08.914Z,5.72
2022-12-31T09:03:47.079Z,4.43
2022-12-31T09:06:32.944Z,3.15
2022-12-31T09:09:05.759Z,3.50
2022-12-31T09:12:04.029Z,5.35
2022-12-31T09:15:04.878Z,6.40
2022-12-31T09:17:42.847Z,3.28
2022-12-31T09:20:24.811Z,4.50
2022-12-31T09:22:58.934Z,4.85
2022-12-31T09:25:34.032Z,3.50
2022-12-31T09:28:18.058Z,6.30
2022-12-31T09:31:09.897Z,2.75
2022-12-31T09:34:09.925Z,2.95
2022-12-31T09:36:44.887Z,4.63
2022-12-31T09:39:26.941Z,3.40
2022-12-31T09:42:12.667Z,6.15
2022-12-31T09:44:45.925Z,4.38
2022-12-31T09:47:16.549Z,6.47
2022-12-31T09:49:52.896Z,5.38
2022-12-31T09:52:44.952Z,2.92
2022-12-31T09:55:33.279Z,4.95
2022-12-31T09:58:30.953Z,4.10
2022-12-31T10:01:18.930Z,2.75
2022-12-31T10:04:26.004Z,3.45
2022-12-31T10:07:01.955Z,6.38
2022-12-31T10:09:53.963Z,4.90
2022-12-31T10:12:39.935Z,3.53
2022-12-31T10:15:19.560Z,2.72
2022-12-31T10:17:58.983Z,5.78
2022-12-31T10:20:45.599Z,4.82
2022-12-31T10:23:27.493Z,4.38
2022-12-31T10:26:07.426Z,4.45
2022-12-31T10:28:39.657Z,4.45
2022-12-31T10:34:05.796Z,4.43
2022-12-31T10:36:52.044Z,4.80
2022-12-31T10:39:28.376Z,6.97
2022-12-31T10:42:35.977Z,5.55
2022-12-31T10:45:24.829Z,7.35
2022-12-31T10:48:23.016Z,6.38
2022-12-31T10:51:05.093Z,4.93
2022-12-31T10:53:37.955Z,5.68
2022-12-31T10:56:33.015Z,6.40
2022-12-31T10:59:28.108Z,8.65
2022-12-31T11:02:26.073Z,6.15
2022-12-31T11:05:03.319Z,4.07
2022-12-31T11:07:45.248Z,6.65
2022-12-31T11:10:43.034Z,6.22
2022-12-31T11:13:41.269Z,6.20
2022-12-31T11:16:53.087Z,5.55
2022-12-31T11:19:43.042Z,6.30
2022-12-31T11:22:47.866Z,6.07
2022-12-31T11:25:50.073Z,6.00
2022-12-31T11:28:48.106Z,5.32
2022-12-31T11:31:23.601Z,4.72
2022-12-31T11:34:19.075Z,4.10
2022-12-31T11:37:29.095Z,5.90
2022-12-31T11:40:25.547Z,5.22
2022-12-31T11:43:08.068Z,5.07
2022-12-31T11:45:50.672Z,8.20
2022-12-31T11:48:43.117Z,5.20
2022-12-31T11:51:54.135Z,5.57
2022-12-31T11:54:57.425Z,6.38
2022-12-31T11:57:41.129Z,5.40
2022-12-31T12:00:25.215Z,8.15
2022-12-31T12:03:08.223Z,5.57
2022-12-31T12:05:38.713Z,9.10
2022-12-31T12:08:20.164Z,7.00
2022-12-31T12:10:52.163Z,8.55
2022-12-31T12:13:34.176Z,9.45
2022-12-31T12:16:03.100Z,7.07
2022-12-31T12:18:43.160Z,8.23
2022-12-31T12:21:18.128Z,6.22
2022-12-31T12:24:01.190Z,6.00
2022-12-31T12:26:29.301Z,6.55
2022-12-31T12:28:59.604Z,10.02
2022-12-31T12:31:34.371Z,4.00
2022-12-31T12:34:08.176Z,8.07
2022-12-31T12:36:41.236Z,7.60
2022-12-31T12:39:22.207Z,5.57
2022-12-31T12:42:10.450Z,7.03
2022-12-31T12:44:37.253Z,5.57
2022-12-31T12:47:25.268Z,5.60
2022-12-31T12:49:54.927Z,8.93
2022-12-31T12:52:59.204Z,4.85
2022-12-31T12:55:53.271Z,7.75
2022-12-31T12:58:44.471Z,9.10
2022-12-31T13:01:36.412Z,6.75
2022-12-31T13:04:37.402Z,5.65
2022-12-31T13:07:20.247Z,7.47
2022-12-31T13:09:59.109Z,8.65
2022-12-31T13:13:22.303Z,7.90
2022-12-31T13:16:06.291Z,8.63
2022-12-31T13:19:11.406Z,6.78
2022-12-31T13:22:08.518Z,5.05
2022-12-31T13:24:59.254Z,7.22
2022-12-31T13:27:53.241Z,6.38
2022-12-31T13:30:36.714Z,5.78
2022-12-31T13:33:27.247Z,7.90
2022-12-31T13:35:57.985Z,8.05
2022-12-31T13:38:36.301Z,6.53
2022-12-31T13:41:46.354Z,7.72
2022-12-31T13:44:40.352Z,10.50
2022-12-31T13:47:56.290Z,9.93
2022-12-31T13:50:36.304Z,6.80
2022-12-31T13:53:20.290Z,7.63
2022-12-31T13:55:57.929Z,7.35
2022-12-31T13:58:34.368Z,8.90
2022-12-31T14:01:45.396Z,7.28
2022-12-31T14:04:12.173Z,10.30
2022-12-31T14:06:56.313Z,8.60
2022-12-31T14:09:36.321Z,8.45
2022-12-31T14:12:43.295Z,8.10
2022-12-31T14:15:36.343Z,13.75
2022-12-31T14:18:28.181Z,11.43
2022-12-31T14:21:14.311Z,7.72
2022-12-31T14:24:10.797Z,7.63
2022-12-31T14:27:08.328Z,9.30
2022-12-31T14:29:52.328Z,8.60
2022-12-31T14:32:34.295Z,9.45
2022-12-31T14:35:28.348Z,5.90
2022-12-31T14:37:58.671Z,7.72
2022-12-31T14:40:44.405Z,8.07
2022-12-31T14:43:25.346Z,8.20
2022-12-31T14:46:00.996Z,8.43
2022-12-31T14:48:49.386Z,8.90
2022-12-31T14:51:23.420Z,68.72
2022-12-31T14:53:54.911Z,21.90
2022-12-31T14:56:52.520Z,14.40
2022-12-31T14:59:26.234Z,7.97
2022-12-31T15:02:00.625Z,12.40
2022-12-31T15:04:49.416Z,10.13
2022-12-31T15:07:40.459Z,10.07
2022-12-31T15:10:23.217Z,7.00
2022-12-31T15:13:25.575Z,7.18
2022-12-31T15:15:58.040Z,11.07
2022-12-31T15:18:37.452Z,6.60
2022-12-31T15:21:30.508Z,7.53
2022-12-31T15:24:05.506Z,11.63
2022-12-31T15:26:47.288Z,9.57
2022-12-31T15:29:41.454Z,16.95
2022-12-31T15:32:22.689Z,15.00
2022-12-31T15:35:11.415Z,12.57
2022-12-31T15:37:44.437Z,12.35
2022-12-31T15:40:26.443Z,10.52
2022-12-31T15:43:02.818Z,9.20
2022-12-31T15:45:44.547Z,12.10
2022-12-31T15:48:22.133Z,13.68
2022-12-31T15:51:00.493Z,11.60
2022-12-31T15:53:39.568Z,10.93
2022-12-31T15:56:18.742Z,15.20
2022-12-31T15:58:47.534Z,15.57
2022-12-31T16:01:38.521Z,12.40
2022-12-31T16:04:20.515Z,12.98
2022-12-31T16:06:55.607Z,15.70
2022-12-31T16:09:36.010Z,17.70
2022-12-31T16:12:16.477Z,12.60
2022-12-31T16:14:45.938Z,13.55
2022-12-31T16:17:36.869Z,7.80
2022-12-31T16:20:30.508Z,14.88
2022-12-31T16:23:21.391Z,11.00
2022-12-31T16:25:55.515Z,13.00
2022-12-31T16:28:34.079Z,11.95
2022-12-31T16:31:10.573Z,12.10
2022-12-31T16:33:37.464Z,10.95
2022-12-31T16:36:11.620Z,16.27
2022-12-31T16:38:47.544Z,15.52
2022-12-31T16:41:28.549Z,11.63
2022-12-31T16:43:55.282Z,12.75
2022-12-31T16:46:35.570Z,13.70
2022-12-31T16:49:27.564Z,11.23
2022-12-31T16:52:00.490Z,11.27
2022-12-31T16:54:46.589Z,13.15
2022-12-31T16:57:27.581Z,16.52
2022-12-31T17:00:06.602Z,13.02
2022-12-31T17:02:44.228Z,12.02
2022-12-31T17:05:39.701Z,15.38
2022-12-31T17:08:48.753Z,12.93
2022-12-31T17:11:23.775Z,15.40
2022-12-31T17:14:22.593Z,11.45
2022-12-31T17:17:10.619Z,13.52
2022-12-31T17:19:52.835Z,15.13
2022-12-31T17:22:36.363Z,11.25
2022-12-31T17:25:15.651Z,14.00
2022-12-31T17:28:15.635Z,9.93
2022-12-31T17:30:42.513Z,17.92
2022-12-31T17:33:12.114Z,13.70
2022-12-31T17:35:48.623Z,14.57
2022-12-31T17:38:21.954Z,15.43
2022-12-31T17:41:01.675Z,16.42
2022-12-31T17:43:34.788Z,12.38
2022-12-31T17:46:09.666Z,13.95
2022-12-31T17:48:52.629Z,14.10
2022-12-31T17:51:27.718Z,15.50
2022-12-31T17:54:00.694Z,12.27
2022-12-31T17:56:33.839Z,13.85
2022-12-31T17:59:04.035Z,15.32
2022-12-31T18:01:38.784Z,11.98
2022-12-31T18:04:10.996Z,12.07
2022-12-31T18:06:44.721Z,8.85
2022-12-31T18:09:12.026Z,14.02
2022-12-31T18:11:55.622Z,11.45
2022-12-31T18:14:32.686Z,12.73
2022-12-31T18:17:07.716Z,13.52
2022-12-31T18:25:00.826Z,12.57
2022-12-31T18:27:27.833Z,14.02
2022-12-31T18:30:04.997Z,17.13
2022-12-31T18:32:41.884Z,15.05
2022-12-31T18:35:57.528Z,13.95
2022-12-31T18:38:22.721Z,16.27
2022-12-31T18:40:56.015Z,17.33
2022-12-31T18:43:29.754Z,12.32
2022-12-31T18:46:02.846Z,9.20
2022-12-31T18:48:29.855Z,12.60
2022-12-31T18:50:57.065Z,11.18
2022-12-31T18:53:31.743Z,11.95
2022-12-31T18:56:11.779Z,12.23
2022-12-31T18:58:45.775Z,10.35
2022-12-31T19:01:35.352Z,14.40
2022-12-31T19:04:27.692Z,12.65
2022-12-31T19:07:03.783Z,11.32
2022-12-31T19:09:45.099Z,14.27
2022-12-31T19:12:21.765Z,13.02
2022-12-31T19:14:48.508Z,16.27
2022-12-31T19:17:23.728Z,9.82
2022-12-31T19:19:56.772Z,15.60
2022-12-31T19:22:26.422Z,11.65
2022-12-31T19:24:53.173Z,11.88
2022-12-31T19:27:28.796Z,9.68
2022-12-31T19:29:56.020Z,14.07
2022-12-31T19:32:25.664Z,9.93
2022-12-31T19:34:58.763Z,12.38
2022-12-31T19:37:26.076Z,13.65
2022-12-31T19:39:59.866Z,13.05
2022-12-31T19:42:28.100Z,17.08
2022-12-31T19:44:54.934Z,15.88
2022-12-31T19:47:27.837Z,12.57
2022-12-31T19:49:54.736Z,15.98
2022-12-31T19:52:27.815Z,11.93
2022-12-31T19:54:54.873Z,12.50
2022-12-31T19:57:27.829Z,11.77
2022-12-31T20:00:00.882Z,10.10
2022-12-31T20:02:27.955Z,16.15
2022-12-31T20:05:01.833Z,11.30
2022-12-31T20:07:34.855Z,13.88
2022-12-31T20:10:09.850Z,15.18
2022-12-31T20:12:44.707Z,12.18
2022-12-31T20:15:19.831Z,17.38
2022-12-31T20:17:52.858Z,11.93
2022-12-31T20:20:25.859Z,16.10
2022-12-31T20:22:58.961Z,13.70
2022-12-31T20:25:32.879Z,13.27
2022-12-31T20:28:12.978Z,17.35
2022-12-31T20:30:39.835Z,11.77
2022-12-31T20:33:19.028Z,13.90
2022-12-31T20:35:46.415Z,16.13
2022-12-31T20:38:29.149Z,14.75
2022-12-31T20:40:55.968Z,12.80
2022-12-31T20:43:22.984Z,13.93
2022-12-31T20:45:55.937Z,13.73
2022-12-31T20:48:22.783Z,18.35
2022-12-31T20:50:55.592Z,11.43
2022-12-31T20:53:28.959Z,13.10
2022-12-31T20:55:55.872Z,15.98
2022-12-31T20:58:22.881Z,17.10
2022-12-31T21:00:58.037Z,17.08
2022-12-31T21:04:03.741Z,11.40
2022-12-31T21:06:22.073Z,13.20
2022-12-31T21:08:50.022Z,11.57
2022-12-31T21:11:41.926Z,14.30
2022-12-31T21:14:14.982Z,11.88
2022-12-31T21:16:42.054Z,11.68
2022-12-31T21:19:09.870Z,14.93
2022-12-31T21:21:43.864Z,17.65
2022-12-31T21:24:10.835Z,15.32
2022-12-31T21:26:37.558Z,14.13
2022-12-31T21:29:13.026Z,15.38
2022-12-31T21:31:39.896Z,14.52
2022-12-31T21:34:06.713Z,13.65
2022-12-31T21:36:39.971Z,12.52
2022-12-31T21:39:12.958Z,13.80
2022-12-31T21:41:59.209Z,17.38
2022-12-31T21:44:35.170Z,12.00
2022-12-31T21:47:37.180Z,19.58
2022-12-31T21:50:05.865Z,16.40
2022-12-31T21:52:42.312Z,11.27
2022-12-31T21:55:30.827Z,13.70
2022-12-31T21:58:25.906Z,21.45
2022-12-31T22:01:26.997Z,16.35
2022-12-31T22:04:12.927Z,19.17
2022-12-31T22:06:56.047Z,13.70
2022-12-31T22:09:29.079Z,12.60
2022-12-31T22:11:55.969Z,13.48
2022-12-31T22:14:29.144Z,11.05
2022-12-31T22:17:02.116Z,16.38
2022-12-31T22:19:28.924Z,12.18
2022-12-31T22:21:58.322Z,13.77
2022-12-31T22:24:32.161Z,11.13
2022-12-31T22:27:00.459Z,13.02
2022-12-31T22:29:54.101Z,11.85
2022-12-31T22:32:22.074Z,13.52
2022-12-31T22:34:55.060Z,12.10
2022-12-31T22:37:55.056Z,11.70
2022-12-31T22:40:17.133Z,12.13
2022-12-31T22:42:50.888Z,13.63
2022-12-31T22:45:24.112Z,14.80
2022-12-31T22:47:58.257Z,16.73
2022-12-31T22:50:25.014Z,10.63
2022-12-31T22:52:58.075Z,13.07
2022-12-31T22:55:24.910Z,12.95
2022-12-31T22:57:51.716Z,11.05
2022-12-31T23:00:27.093Z,13.88
2022-12-31T23:02:59.048Z,14.73
2022-12-31T23:05:32.433Z,13.95
2022-12-31T23:08:22.342Z,15.73
2022-12-31T23:11:08.824Z,20.02
2022-12-31T23:14:06.391Z,31.88
2022-12-31T23:16:52.326Z,43.53
2022-12-31T23:19:44.263Z,30.20
2022-12-31T23:22:29.750Z,27.97
2022-12-31T23:25:03.187Z,25.25
2022-12-31T23:27:30.040Z,24.40
2022-12-31T23:30:11.092Z,26.95
2022-12-31T23:32:37.894Z,20.08
2022-12-31T23:35:12.160Z,26.83
2022-12-31T23:37:39.015Z,25.30
2022-12-31T23:40:20.915Z,23.58
2022-12-31T23:42:49.686Z,29.95
2022-12-31T23:45:25.884Z,27.23
2022-12-31T23:47:56.943Z,30.17
2022-12-31T23:50:30.165Z,38.63
2022-12-31T23:53:04.401Z,41.20
2022-12-31T23:55:31.240Z,31.15
2022-12-31T23:57:58.079Z,36.10
